Time;durP1;ratioP1;P1;durP2;ratioP2;P2;SDS_P1;SDS_P2;PMS_P1;PMS_P2;Temp;Humidity;BMP_temperature;BMP_pressure;BME280_temperature;BME280_humidity;BME280_pressure;Samples;Min_cycle;Max_cycle;Signal;HPM_P1;HPM_P2
2024/03/25 00:02:06;;;;;;;;;;;;;;;15.96;48.39;99228.47;5036241;28;1059;-56
2024/03/25 00:04:31;;;;;;;;;;;;;;;15.50;47.84;99215.91;5036755;28;1051;-55
2024/03/25 00:06:58;;;;;;;;;;;;;;;15.35;47.32;99214.69;5035772;28;1907;-57
2024/03/25 00:09:24;;;;;;;;;;;;;;;16.08;48.38;99205.25;5019161;28;1196;-55
2024/03/25 00:11:54;;;;;;;;;;;;;;;15.88;48.11;99204.50;5036132;28;975;-56
2024/03/25 00:14:22;;;;;;;;;;;;;;;15.43;47.61;99218.28;5036232;28;904;-56
2024/03/25 00:16:48;;;;;;;;;;;;;;;15.24;46.95;99213.03;5035790;28;1183;-56
2024/03/25 00:19:14;;;;;;;;;;;;;;;16.56;47.80;99207.81;5036494;28;1052;-55
2024/03/25 00:21:39;;;;;;;;;;;;;;;15.72;48.37;99207.75;5036224;28;1131;-55
2024/03/25 00:24:05;;;;;;;;;;;;;;;15.39;47.73;99203.66;5036624;28;1082;-56
2024/03/25 00:26:31;;;;;;;;;;;;;;;15.18;46.82;99209.16;5035705;28;1910;-58
2024/03/25 00:28:56;;;;;;;;;;;;;;;15.12;46.50;99215.81;5036658;28;1068;-57
2024/03/25 00:31:22;;;;;;;;;;;;;;;14.95;46.04;99198.81;5026420;28;1938;-57
2024/03/25 00:33:47;;;;;;;;;;;;;;;16.43;47.19;99218.78;5035831;28;1027;-56
2024/03/25 00:36:13;;;;;;;;;;;;;;;15.37;48.02;99213.56;5036121;28;1111;-56
2024/03/25 00:38:38;;;;;;;;;;;;;;;15.13;47.39;99214.03;5018567;28;1013;-57
2024/03/25 00:41:04;;;;;;;;;;;;;;;15.05;46.23;99220.00;5035844;28;1134;-56
2024/03/25 00:43:30;;;;;;;;;;;;;;;14.84;46.02;99209.56;5036314;28;1076;-56
2024/03/25 00:45:56;;;;;;;;;;;;;;;16.38;46.75;99202.47;5035783;28;1970;-56
2024/03/25 00:48:22;;;;;;;;;;;;;;;15.32;48.04;99217.59;5035926;28;1015;-56
2024/03/25 00:50:48;;;;;;;;;;;;;;;15.03;47.27;99214.03;5035908;28;1015;-56
2024/03/25 00:53:14;;;;;;;;;;;;;;;14.98;46.52;99210.97;5036439;28;1082;-56
2024/03/25 00:55:39;;;;;;;;;;;;;;;14.88;45.94;99208.31;5035881;28;1066;-56
2024/03/25 00:58:05;;;;;;;;;;;;;;;15.85;47.21;99196.84;5036594;28;1149;-56
2024/03/25 01:00:31;;;;;;;;;;;;;;;15.67;47.83;99194.94;5032778;28;2482;-56
2024/03/25 01:02:56;;;;;;;;;;;;;;;15.12;47.39;99189.34;5035840;28;1095;-56
2024/03/25 01:05:22;;;;;;;;;;;;;;;14.92;47.08;99183.22;5036364;28;1048;-57
2024/03/25 01:07:48;;;;;;;;;;;;;;;16.48;47.04;99191.78;5017969;28;1914;-57
2024/03/25 01:10:14;;;;;;;;;;;;;;;15.49;48.09;99186.91;5035672;28;996;-57
2024/03/25 01:12:40;;;;;;;;;;;;;;;15.14;47.62;99187.41;5035736;28;1080;-56
2024/03/25 01:15:06;;;;;;;;;;;;;;;15.01;46.47;99182.41;5035665;28;1123;-57
2024/03/25 01:17:32;;;;;;;;;;;;;;;14.93;46.06;99166.38;5036056;28;1020;-56
2024/03/25 01:19:57;;;;;;;;;;;;;;;14.84;45.79;99165.41;5035920;28;1079;-56
2024/03/25 01:22:23;;;;;;;;;;;;;;;15.14;46.85;99168.00;5036328;28;874;-56
2024/03/25 01:24:49;;;;;;;;;;;;;;;16.10;46.72;99166.16;5035467;28;1012;-58
2024/03/25 01:27:15;;;;;;;;;;;;;;;15.26;47.53;99174.00;5035707;28;1910;-57
2024/03/25 01:29:40;;;;;;;;;;;;;;;15.00;46.89;99182.50;5035600;28;2417;-58
2024/03/25 01:32:06;;;;;;;;;;;;;;;16.57;46.68;99179.41;5035723;28;1035;-57
2024/03/25 01:34:32;;;;;;;;;;;;;;;15.40;47.99;99185.94;5035451;28;1110;-57
2024/03/25 01:36:57;;;;;;;;;;;;;;;15.06;47.48;99190.72;5035255;28;998;-57
2024/03/25 01:39:24;;;;;;;;;;;;;;;14.95;46.44;99190.06;5017857;28;1139;-58
2024/03/25 01:41:49;;;;;;;;;;;;;;;16.03;47.14;99195.09;5035751;28;1110;-57
2024/03/25 01:44:15;;;;;;;;;;;;;;;15.20;47.67;99212.47;5035275;28;1071;-57
2024/03/25 01:46:42;;;;;;;;;;;;;;;16.81;46.76;99209.84;5052623;28;1906;-57
2024/03/25 01:49:08;;;;;;;;;;;;;;;15.99;47.63;99212.31;5020969;28;1142;-57
2024/03/25 01:51:34;;;;;;;;;;;;;;;15.44;47.50;99221.78;5021812;28;1147;-56
2024/03/25 01:53:59;;;;;;;;;;;;;;;15.25;46.99;99212.88;5038856;28;1032;-57
2024/03/25 01:56:25;;;;;;;;;;;;;;;15.09;46.29;99216.13;5038672;28;1047;-57
2024/03/25 01:58:50;;;;;;;;;;;;;;;15.37;47.22;99224.16;5039097;28;1130;-56
2024/03/25 02:01:16;;;;;;;;;;;;;;;16.36;47.26;99223.84;5020884;28;2679;-56
2024/03/25 02:03:42;;;;;;;;;;;;;;;15.37;48.27;99225.97;5039117;28;984;-57
2024/03/25 02:06:09;;;;;;;;;;;;;;;15.18;46.85;99223.22;5038572;28;1975;-58
2024/03/25 02:08:35;;;;;;;;;;;;;;;14.95;46.78;99222.66;5020922;28;1056;-57
2024/03/25 02:11:01;;;;;;;;;;;;;;;16.68;47.03;99216.38;5038587;28;1193;-56
2024/03/25 02:13:26;;;;;;;;;;;;;;;15.88;47.76;99225.72;5020883;28;1171;-56
2024/03/25 02:15:53;;;;;;;;;;;;;;;15.46;47.33;99229.59;5021319;28;1224;-56
2024/03/25 02:18:18;;;;;;;;;;;;;;;15.09;47.13;99231.16;5038652;28;1099;-57
2024/03/25 02:20:44;;;;;;;;;;;;;;;14.99;46.24;99226.72;5038368;28;1102;-58
2024/03/25 02:23:10;;;;;;;;;;;;;;;15.39;47.20;99240.75;5038454;28;1055;-57
2024/03/25 02:25:36;;;;;;;;;;;;;;;16.66;46.69;99228.97;5020492;28;1044;-58
2024/03/25 02:28:01;;;;;;;;;;;;;;;15.54;47.77;99235.00;5020800;28;1906;-58
2024/03/25 02:30:27;;;;;;;;;;;;;;;15.26;47.08;99235.78;5030277;28;2405;-57
2024/03/25 02:32:52;;;;;;;;;;;;;;;15.01;46.81;99238.00;5036485;28;1096;-57
2024/03/25 02:35:18;;;;;;;;;;;;;;;16.61;47.33;99226.78;5038187;28;1167;-57
2024/03/25 02:37:45;;;;;;;;;;;;;;;15.67;47.63;99230.25;5020836;28;1056;-57
2024/03/25 02:40:11;;;;;;;;;;;;;;;15.20;47.86;99227.53;5037939;28;1234;-57
2024/03/25 02:42:37;;;;;;;;;;;;;;;15.35;48.11;99225.31;5020111;28;1136;-57
2024/03/25 02:45:03;;;;;;;;;;;;;;;16.96;46.31;99224.28;5019965;28;1048;-57
2024/03/25 02:47:29;;;;;;;;;;;;;;;15.68;47.66;99223.13;5037977;28;1917;-57
2024/03/25 02:49:54;;;;;;;;;;;;;;;15.42;47.17;99221.94;5037278;28;1110;-58
2024/03/25 02:52:20;;;;;;;;;;;;;;;15.45;47.65;99220.78;5037152;28;1186;-58
2024/03/25 02:54:45;;;;;;;;;;;;;;;16.79;46.75;99211.81;5037919;28;1020;-57
2024/03/25 02:57:11;;;;;;;;;;;;;;;15.60;47.87;99205.28;5037584;28;1095;-57
2024/03/25 02:59:37;;;;;;;;;;;;;;;15.30;47.27;99201.84;5037924;28;2669;-58
2024/03/25 03:02:02;;;;;;;;;;;;;;;15.17;46.63;99202.16;5037298;28;1104;-58
2024/03/25 03:04:28;;;;;;;;;;;;;;;15.52;47.68;99192.75;5037617;28;1122;-57
2024/03/25 03:06:53;;;;;;;;;;;;;;;15.59;47.36;99190.38;5037224;28;1977;-58
2024/03/25 03:09:19;;;;;;;;;;;;;;;15.20;47.37;99196.56;5037713;28;1147;-58
2024/03/25 03:11:44;;;;;;;;;;;;;;;16.67;46.75;99190.81;5037352;28;1119;-58
2024/03/25 03:14:10;;;;;;;;;;;;;;;15.57;47.76;99200.28;5037454;28;999;-58
2024/03/25 03:16:36;;;;;;;;;;;;;;;15.25;47.38;99206.75;5019551;28;1111;-58
2024/03/25 03:19:02;;;;;;;;;;;;;;;15.13;46.56;99212.19;5037890;28;1053;-58
2024/03/25 03:21:27;;;;;;;;;;;;;;;15.45;47.17;99210.19;5037255;28;1157;-57
2024/03/25 03:23:53;;;;;;;;;;;;;;;16.84;46.16;99198.94;5037335;28;1159;-56
2024/03/25 03:26:19;;;;;;;;;;;;;;;15.67;47.81;99206.38;5037142;28;1902;-56
2024/03/25 03:28:45;;;;;;;;;;;;;;;15.43;48.11;99191.78;5037230;28;1167;-57
2024/03/25 03:31:10;;;;;;;;;;;;;;;16.24;47.14;99196.69;5036976;28;1045;-58
2024/03/25 03:33:36;;;;;;;;;;;;;;;15.50;47.77;99201.81;5036909;28;1060;-58
2024/03/25 03:36:01;;;;;;;;;;;;;;;15.28;46.62;99211.78;5037123;28;1286;-58
2024/03/25 03:38:27;;;;;;;;;;;;;;;15.13;46.18;99203.44;5036456;28;1099;-58
2024/03/25 03:40:59;;;;;;;;;;;;;;;16.39;47.35;99191.72;5037086;28;1099;-57
2024/03/25 03:43:25;;;;;;;;;;;;;;;16.03;47.46;99200.41;5036917;28;1076;-58
2024/03/25 03:45:50;;;;;;;;;;;;;;;15.54;47.73;99198.75;5037371;28;1148;-58
2024/03/25 03:48:16;;;;;;;;;;;;;;;16.56;47.25;99201.66;5037142;28;1906;-58
2024/03/25 03:50:42;;;;;;;;;;;;;;;15.56;47.94;99185.34;5036400;28;1100;-57
2024/03/25 03:53:07;;;;;;;;;;;;;;;15.37;47.01;99180.94;5036586;28;1242;-57
2024/03/25 03:55:33;;;;;;;;;;;;;;;15.11;46.49;99187.69;5036439;28;1051;-58
2024/03/25 03:57:59;;;;;;;;;;;;;;;16.66;47.06;99205.06;5036987;28;1122;-57
2024/03/25 04:00:24;;;;;;;;;;;;;;;15.86;47.91;99207.31;5036795;28;1053;-57
2024/03/25 04:02:50;;;;;;;;;;;;;;;15.36;47.88;99214.56;5036570;28;1099;-56
2024/03/25 04:05:16;;;;;;;;;;;;;;;15.24;46.92;99219.16;5036346;28;957;-56
2024/03/25 04:07:42;;;;;;;;;;;;;;;15.04;46.69;99218.34;5036512;28;1985;-57
2024/03/25 04:10:08;;;;;;;;;;;;;;;15.43;47.24;99214.81;5036369;28;1127;-57
2024/03/25 04:12:33;;;;;;;;;;;;;;;16.78;46.44;99205.69;5036793;28;1144;-56
2024/03/25 04:14:59;;;;;;;;;;;;;;;15.55;48.12;99204.88;5035977;28;996;-58
2024/03/25 04:17:24;;;;;;;;;;;;;;;15.27;47.24;99215.38;5036730;28;1039;-56
2024/03/25 04:19:50;;;;;;;;;;;;;;;15.16;46.90;99213.75;5036801;28;1301;-55
2024/03/25 04:22:16;;;;;;;;;;;;;;;15.15;46.12;99212.06;5036312;28;1032;-51
2024/03/25 04:24:45;;;;;;;;;;;;;;;16.46;47.50;99213.19;5036110;28;1130;-57
2024/03/25 04:27:10;;;;;;;;;;;;;;;15.83;47.92;99222.66;5036338;28;1906;-60
2024/03/25 04:29:36;;;;;;;;;;;;;;;15.29;47.49;99222.22;5036186;28;1051;-58
2024/03/25 04:32:02;;;;;;;;;;;;;;;15.06;47.11;99219.03;5036272;28;1239;-56
2024/03/25 04:34:28;;;;;;;;;;;;;;;14.97;46.31;99217.22;5036065;28;1025;-54
2024/03/25 04:36:53;;;;;;;;;;;;;;;15.90;47.68;99213.13;5035913;28;1088;-55
2024/03/25 04:39:19;;;;;;;;;;;;;;;15.78;48.00;99213.31;5036042;28;1104;-56
2024/03/25 04:41:45;;;;;;;;;;;;;;;15.27;47.86;99220.69;5036446;28;1080;-57
2024/03/25 04:44:11;;;;;;;;;;;;;;;15.11;46.63;99222.13;5035832;28;1091;-57
2024/03/25 04:46:37;;;;;;;;;;;;;;;15.69;47.82;99219.50;5035942;28;1980;-57
2024/03/25 04:49:03;;;;;;;;;;;;;;;15.88;47.76;99228.38;5036001;28;1011;-56
2024/03/25 04:51:28;;;;;;;;;;;;;;;15.64;48.88;99227.03;5035900;28;2638;-57
2024/03/25 04:53:54;;;;;;;;;;;;;;;17.46;46.23;99229.19;5030338;28;1307;-60
2024/03/25 04:56:20;;;;;;;;;;;;;;;15.98;47.68;99236.28;5038483;28;1003;-58
2024/03/25 04:58:45;;;;;;;;;;;;;;;15.56;47.68;99230.41;5035906;28;1008;-56
2024/03/25 05:01:11;;;;;;;;;;;;;;;15.33;46.88;99233.34;5037269;28;1012;-55
2024/03/25 05:03:36;;;;;;;;;;;;;;;15.26;46.25;99232.28;5035473;28;1227;-55
2024/03/25 05:06:02;;;;;;;;;;;;;;;16.55;47.32;99231.84;5036043;28;1987;-55
2024/03/25 05:08:28;;;;;;;;;;;;;;;15.80;48.46;99221.13;5035949;28;1150;-56
2024/03/25 05:10:54;;;;;;;;;;;;;;;16.87;45.89;99226.03;5036008;28;1106;-55
2024/03/25 05:13:19;;;;;;;;;;;;;;;16.51;46.36;99221.53;5035981;28;1175;-57
2024/03/25 05:15:51;;;;;;;;;;;;;;;16.19;47.27;99230.78;5035380;28;1175;-55
2024/03/25 05:18:17;;;;;;;;;;;;;;;15.95;47.37;99226.78;5036012;28;1171;-58
2024/03/25 05:20:43;;;;;;;;;;;;;;;15.86;47.99;99230.31;5036105;28;1070;-57
2024/03/25 05:23:08;;;;;;;;;;;;;;;15.61;48.54;99238.78;5039697;28;1104;-58
2024/03/25 05:25:34;;;;;;;;;;;;;;;15.56;48.22;99238.38;5045614;28;1162;-57
2024/03/25 05:28:00;;;;;;;;;;;;;;;15.40;48.84;99237.13;5039011;28;1901;-58
2024/03/25 05:30:26;;;;;;;;;;;;;;;15.34;48.93;99232.41;5039583;28;1044;-59
2024/03/25 05:32:52;;;;;;;;;;;;;;;15.21;48.81;99231.84;5039444;28;1036;-59
2024/03/25 05:35:17;;;;;;;;;;;;;;;15.12;48.91;99225.56;5039507;28;1172;-56
2024/03/25 05:37:43;;;;;;;;;;;;;;;15.34;48.89;99223.59;5039246;28;1233;-58
2024/03/25 05:40:11;;;;;;;;;;;;;;;16.79;45.91;99217.13;5042763;28;1400;-60
2024/03/25 05:42:37;;;;;;;;;;;;;;;16.69;45.46;99201.28;5051374;28;1051;-60
2024/03/25 05:45:02;;;;;;;;;;;;;;;15.97;47.01;99193.00;5039764;28;1070;-57
2024/03/25 05:47:28;;;;;;;;;;;;;;;15.71;48.14;99184.88;5039267;28;1911;-59
2024/03/25 05:49:54;;;;;;;;;;;;;;;15.48;48.73;99204.59;5043937;28;1199;-54
2024/03/25 05:52:19;;;;;;;;;;;;;;;15.38;48.51;99206.47;5048366;28;1256;-54
2024/03/25 05:54:45;;;;;;;;;;;;;;;15.21;48.99;99206.22;5036175;28;2467;-60
2024/03/25 05:57:10;;;;;;;;;;;;;;;16.65;46.01;99206.03;5038840;28;1070;-58
2024/03/25 05:59:36;;;;;;;;;;;;;;;17.28;44.24;99206.13;5039307;28;1025;-59
2024/03/25 06:02:01;;;;;;;;;;;;;;;16.30;46.67;99203.19;5046021;28;890;-57
2024/03/25 06:04:27;;;;;;;;;;;;;;;15.87;47.69;99198.34;5038408;28;1036;-57
2024/03/25 06:06:53;;;;;;;;;;;;;;;15.63;48.24;99214.78;5047354;28;1902;-59
2024/03/25 06:09:18;;;;;;;;;;;;;;;15.47;48.52;99218.00;5038856;28;1148;-58
2024/03/25 06:11:44;;;;;;;;;;;;;;;15.42;48.88;99215.78;5038610;28;1067;-58
2024/03/25 06:14:11;;;;;;;;;;;;;;;15.46;49.13;99211.88;5049065;28;1289;-56
2024/03/25 06:16:37;;;;;;;;;;;;;;;16.83;46.03;99221.16;5038450;28;1167;-52
2024/03/25 06:19:03;;;;;;;;;;;;;;;17.25;44.75;99217.06;5030826;28;1076;-59
2024/03/25 06:21:28;;;;;;;;;;;;;;;16.33;46.76;99210.84;5038351;28;1056;-58
2024/03/25 06:23:54;;;;;;;;;;;;;;;15.93;48.08;99215.50;5033366;28;2600;-58
2024/03/25 06:26:20;;;;;;;;;;;;;;;15.64;48.45;99235.00;5037728;28;1914;-61
2024/03/25 06:28:45;;;;;;;;;;;;;;;15.52;48.96;99240.47;5040391;28;1027;-57
2024/03/25 06:36:39;;;;;;;;;;;;;;;16.07;47.49;99234.59;5038417;28;1242;-60
2024/03/25 06:39:04;;;;;;;;;;;;;;;17.24;44.84;99244.63;5028374;28;1376;-57
2024/03/25 06:41:30;;;;;;;;;;;;;;;16.81;45.49;99247.88;5028193;28;1383;-57
2024/03/25 06:43:55;;;;;;;;;;;;;;;16.12;47.30;99253.56;5017352;28;1239;-58
2024/03/25 06:46:21;;;;;;;;;;;;;;;15.78;47.90;99265.53;5036765;28;1975;-57
2024/03/25 06:48:48;;;;;;;;;;;;;;;15.58;48.81;99267.38;5034795;28;940;-56
2024/03/25 06:51:13;;;;;;;;;;;;;;;15.46;48.94;99264.88;5052807;28;1076;-56
2024/03/25 06:53:39;;;;;;;;;;;;;;;15.22;49.12;99267.94;5037936;28;2463;-58
2024/03/25 06:56:05;;;;;;;;;;;;;;;15.97;47.84;99267.28;5038100;28;1036;-56
2024/03/25 06:58:30;;;;;;;;;;;;;;;17.21;44.83;99267.03;5020497;28;1113;-56
2024/03/25 07:00:56;;;;;;;;;;;;;;;16.70;45.75;99274.66;5036537;28;1168;-58
2024/03/25 07:03:22;;;;;;;;;;;;;;;16.10;47.19;99274.94;5037610;28;1051;-58
2024/03/25 07:05:48;;;;;;;;;;;;;;;15.74;47.97;99282.69;5037666;28;977;-56
2024/03/25 07:08:14;;;;;;;;;;;;;;;15.53;48.32;99287.19;5037837;28;1913;-59
2024/03/25 07:10:42;;;;;;;;;;;;;;;15.38;48.97;99297.38;5037015;28;1266;-59
2024/03/25 07:13:08;;;;;;;;;;;;;;;15.25;49.09;99295.00;5024538;28;1114;-58
2024/03/25 07:15:35;;;;;;;;;;;;;;;16.23;47.26;99300.31;5017416;28;1274;-57
2024/03/25 07:18:01;;;;;;;;;;;;;;;17.39;45.17;99314.03;5035830;28;1103;-54
2024/03/25 07:20:26;;;;;;;;;;;;;;;16.56;46.01;99321.13;5036955;28;1149;-57
2024/03/25 07:22:55;;;;;;;;;;;;;;;16.08;47.69;99337.09;5037212;28;1077;-53
2024/03/25 07:25:21;;;;;;;;;;;;;;;15.81;48.28;99339.47;5032079;28;2785;-54
2024/03/25 07:27:46;;;;;;;;;;;;;;;15.57;48.78;99318.69;5036176;28;1971;-56
2024/03/25 07:30:12;;;;;;;;;;;;;;;15.35;48.78;99321.50;5039185;28;1301;-57
2024/03/25 07:32:38;;;;;;;;;;;;;;;15.24;49.37;99325.13;5027670;28;1308;-55
2024/03/25 07:35:04;;;;;;;;;;;;;;;15.13;49.46;99319.97;5028211;28;1329;-53
2024/03/25 07:37:30;;;;;;;;;;;;;;;16.59;46.32;99326.13;5026203;28;1612;-57
2024/03/25 07:39:56;;;;;;;;;;;;;;;17.24;44.57;99327.84;5029267;28;1388;-57
2024/03/25 07:42:21;;;;;;;;;;;;;;;16.32;46.51;99338.38;5037296;28;1020;-57
2024/03/25 07:44:47;;;;;;;;;;;;;;;15.85;48.02;99337.38;5036400;28;1334;-56
2024/03/25 07:47:13;;;;;;;;;;;;;;;15.64;48.39;99343.69;5034050;28;1914;-54
2024/03/25 07:49:39;;;;;;;;;;;;;;;15.35;48.81;99348.00;5041660;28;921;-55
2024/03/25 07:52:05;;;;;;;;;;;;;;;15.27;49.20;99346.06;5036255;28;1059;-56
2024/03/25 07:54:31;;;;;;;;;;;;;;;15.15;49.16;99355.94;5028576;28;2413;-56
2024/03/25 07:56:57;;;;;;;;;;;;;;;16.63;46.10;99349.56;5015371;28;1021;-56
2024/03/25 07:59:22;;;;;;;;;;;;;;;17.49;44.02;99354.66;5036951;28;1138;-56
2024/03/25 08:01:48;;;;;;;;;;;;;;;16.49;46.18;99358.88;5024531;28;1144;-56
2024/03/25 08:04:13;;;;;;;;;;;;;;;15.96;47.49;99361.09;5036358;28;1125;-53
2024/03/25 08:06:39;;;;;;;;;;;;;;;15.65;48.24;99364.75;5028594;28;1998;-56
2024/03/25 08:09:09;;;;;;;;;;;;;;;15.54;48.40;99363.09;5036493;28;1039;-55
2024/03/25 08:11:35;;;;;;;;;;;;;;;15.86;48.27;99374.38;5036161;28;1140;-53
2024/03/25 08:14:00;;;;;;;;;;;;;;;15.32;48.87;99374.78;5034783;28;1259;-55
2024/03/25 08:16:26;;;;;;;;;;;;;;;15.66;49.02;99370.88;5032986;28;1345;-55
2024/03/25 08:18:51;;;;;;;;;;;;;;;17.01;45.56;99377.91;5035793;28;1001;-57
2024/03/25 08:21:17;;;;;;;;;;;;;;;17.06;45.01;99378.31;5036539;28;1060;-54
2024/03/25 08:23:46;;;;;;;;;;;;;;;16.24;47.00;99384.22;5035964;28;2457;-58
2024/03/25 08:26:11;;;;;;;;;;;;;;;15.89;47.79;99384.69;5049167;28;1996;-57
2024/03/25 08:28:37;;;;;;;;;;;;;;;15.63;48.19;99382.59;5036577;28;1134;-57
2024/03/25 08:31:05;;;;;;;;;;;;;;;15.43;48.83;99384.44;5018868;28;1196;-55
2024/03/25 08:33:31;;;;;;;;;;;;;;;15.27;49.32;99387.59;5035836;28;1092;-57
2024/03/25 08:35:56;;;;;;;;;;;;;;;15.17;49.79;99382.28;5035556;28;1239;-57
2024/03/25 08:38:22;;;;;;;;;;;;;;;16.71;46.37;99379.88;5035837;28;1083;-55
2024/03/25 08:40:48;;;;;;;;;;;;;;;17.54;44.27;99387.91;5035787;28;1175;-55
2024/03/25 08:43:13;;;;;;;;;;;;;;;16.52;46.10;99387.78;5033510;28;996;-56
2024/03/25 08:45:40;;;;;;;;;;;;;;;16.01;47.36;99393.38;5017098;28;1493;-56
2024/03/25 08:48:06;;;;;;;;;;;;;;;15.79;48.51;99389.16;5035925;28;1906;-55
2024/03/25 08:50:32;;;;;;;;;;;;;;;15.50;49.20;99395.28;5033358;28;1100;-54
2024/03/25 08:52:57;;;;;;;;;;;;;;;15.55;49.13;99385.94;5026822;28;1334;-61
2024/03/25 08:55:23;;;;;;;;;;;;;;;15.21;49.63;99393.44;5027419;28;2509;-58
2024/03/25 08:57:49;;;;;;;;;;;;;;;16.70;46.59;99386.19;5040099;28;1090;-57
2024/03/25 09:00:15;;;;;;;;;;;;;;;17.59;44.42;99382.97;5039875;28;1116;-57
2024/03/25 09:02:40;;;;;;;;;;;;;;;17.01;45.39;99381.41;5039837;28;1021;-55
2024/03/25 09:05:07;;;;;;;;;;;;;;;16.54;46.51;99390.28;5038517;28;1157;-51
2024/03/25 09:07:32;;;;;;;;;;;;;;;16.02;47.92;99388.88;5020679;28;1981;-50
2024/03/25 09:12:42;;;;;;;;;;;;;;;15.54;48.75;99394.03;5030381;28;1385;-50
2024/03/25 09:15:09;;;;;;;;;;;;;;;15.50;48.91;99400.59;5039013;28;961;-50
2024/03/25 09:17:35;;;;;;;;;;;;;;;15.74;48.82;99397.53;5043984;28;1126;-50
2024/03/25 09:20:01;;;;;;;;;;;;;;;17.19;45.60;99391.25;5040038;28;1139;-52
2024/03/25 09:22:26;;;;;;;;;;;;;;;17.79;43.92;99386.31;5040004;28;1087;-50
2024/03/25 09:24:52;;;;;;;;;;;;;;;16.71;46.16;99394.00;5039949;28;2473;-52
2024/03/25 09:27:18;;;;;;;;;;;;;;;16.22;47.48;99396.78;5029518;28;1883;-51
2024/03/25 09:29:44;;;;;;;;;;;;;;;15.97;48.12;99393.72;5037886;28;1067;-52
2024/03/25 09:32:09;;;;;;;;;;;;;;;15.76;48.56;99402.69;5039242;28;988;-53
2024/03/25 09:34:35;;;;;;;;;;;;;;;15.75;48.58;99404.50;5033219;28;1325;-49
2024/03/25 09:37:01;;;;;;;;;;;;;;;15.40;49.33;99413.81;5034993;28;1270;-49
2024/03/25 09:39:26;;;;;;;;;;;;;;;15.36;49.10;99423.88;5033122;28;1040;-50
2024/03/25 09:41:54;;;;;;;;;;;;;;;15.33;49.37;99433.91;5038185;28;915;-49
2024/03/25 09:44:19;;;;;;;;;;;;;;;16.84;46.40;99430.84;5054545;28;1092;-52
2024/03/25 09:46:45;;;;;;;;;;;;;;;17.36;44.70;99424.16;5039230;28;1902;-47
2024/03/25 09:49:11;;;;;;;;;;;;;;;16.38;47.01;99425.41;5038938;28;1064;-48
2024/03/25 09:51:36;;;;;;;;;;;;;;;16.01;47.86;99427.84;5038174;28;1083;-48
2024/03/25 09:54:04;;;;;;;;;;;;;;;15.73;48.34;99421.53;5037224;28;1970;-50
2024/03/25 09:56:29;;;;;;;;;;;;;;;15.57;48.98;99428.22;5030043;28;988;-49
2024/03/25 09:58:56;;;;;;;;;;;;;;;15.42;48.97;99425.13;5050010;28;1132;-47
2024/03/25 10:01:21;;;;;;;;;;;;;;;15.24;49.51;99415.22;5019295;28;1623;-46
2024/03/25 10:03:47;;;;;;;;;;;;;;;15.76;48.60;99408.84;5038277;28;1032;-46
2024/03/25 10:06:13;;;;;;;;;;;;;;;17.04;45.43;99411.28;5037351;28;1963;-50
2024/03/25 10:08:38;;;;;;;;;;;;;;;17.29;44.87;99417.75;5037992;28;1148;-49
2024/03/25 10:11:04;;;;;;;;;;;;;;;16.41;46.66;99419.81;5037736;28;1075;-50
2024/03/25 10:13:29;;;;;;;;;;;;;;;15.99;48.09;99421.84;5038319;28;1032;-49
2024/03/25 10:15:55;;;;;;;;;;;;;;;15.76;48.34;99422.09;5033672;28;1533;-51
2024/03/25 10:18:21;;;;;;;;;;;;;;;15.60;48.87;99421.81;5032307;28;1262;-51
2024/03/25 10:20:50;;;;;;;;;;;;;;;15.44;49.06;99425.84;5037255;28;1274;-49
2024/03/25 10:23:15;;;;;;;;;;;;;;;15.33;48.97;99428.63;5034146;28;1059;-51
2024/03/25 10:25:41;;;;;;;;;;;;;;;15.93;48.19;99424.19;5038364;28;2788;-49
2024/03/25 10:28:07;;;;;;;;;;;;;;;17.20;45.41;99422.16;5037783;28;1972;-50
2024/03/25 10:30:32;;;;;;;;;;;;;;;17.34;44.60;99415.50;5033514;28;1557;-54
2024/03/25 10:33:04;;;;;;;;;;;;;;;16.45;46.48;99415.06;5033839;28;1107;-50
2024/03/25 10:35:31;;;;;;;;;;;;;;;16.04;47.77;99413.44;5031422;28;1489;-51
2024/03/25 10:37:58;;;;;;;;;;;;;;;15.85;48.58;99424.91;5031823;28;1218;-52
2024/03/25 10:40:27;;;;;;;;;;;;;;;15.60;49.12;99437.72;5030171;28;1471;-50
2024/03/25 10:42:55;;;;;;;;;;;;;;;15.41;49.51;99436.72;5036149;28;1222;-51
2024/03/25 10:45:21;;;;;;;;;;;;;;;15.35;49.32;99438.09;5041987;28;1125;-50
2024/03/25 10:47:47;;;;;;;;;;;;;;;16.52;46.87;99432.06;5033162;28;1906;-50
2024/03/25 10:50:13;;;;;;;;;;;;;;;17.50;44.62;99438.75;5028578;28;1120;-48
2024/03/25 10:52:39;;;;;;;;;;;;;;;16.56;46.61;99443.22;5037631;28;1139;-50
2024/03/25 10:55:04;;;;;;;;;;;;;;;16.01;47.73;99443.75;5014928;28;2436;-50
2024/03/25 10:57:30;;;;;;;;;;;;;;;15.73;48.47;99456.81;5050762;28;955;-51
2024/03/25 10:59:55;;;;;;;;;;;;;;;15.58;49.11;99466.19;5043414;28;1371;-54
2024/03/25 11:02:21;;;;;;;;;;;;;;;15.46;49.30;99461.00;5037875;28;1175;-50
2024/03/25 11:04:49;;;;;;;;;;;;;;;15.33;49.18;99476.31;5052950;28;1229;-52
2024/03/25 11:07:15;;;;;;;;;;;;;;;15.39;49.71;99481.91;5037219;28;1963;-49
2024/03/25 11:09:41;;;;;;;;;;;;;;;16.84;46.17;99488.41;5037357;28;1056;-50
2024/03/25 11:12:06;;;;;;;;;;;;;;;17.29;45.07;99486.88;5037582;28;1059;-48
2024/03/25 11:14:34;;;;;;;;;;;;;;;16.45;46.61;99503.47;5036122;28;1167;-49
2024/03/25 11:16:59;;;;;;;;;;;;;;;15.93;48.05;99493.16;5030937;28;1051;-49
2024/03/25 11:19:25;;;;;;;;;;;;;;;15.75;48.73;99486.69;5035833;28;841;-49
2024/03/25 11:21:51;;;;;;;;;;;;;;;15.59;49.08;99484.59;5037379;28;1282;-49
2024/03/25 11:24:27;;;;;;;;;;;;;;;15.43;49.03;99485.13;5027924;28;2511;-50
2024/03/25 11:26:52;;;;;;;;;;;;;;;15.27;49.60;99475.88;5040378;28;1894;-51
2024/03/25 11:29:18;;;;;;;;;;;;;;;16.68;47.03;99478.41;5033838;28;1391;-50
2024/03/25 11:31:44;;;;;;;;;;;;;;;17.56;44.31;99471.88;5029184;28;1270;-49
2024/03/25 11:34:09;;;;;;;;;;;;;;;16.82;45.93;99487.72;5036186;28;1027;-48
2024/03/25 11:36:35;;;;;;;;;;;;;;;16.27;47.15;99475.00;5028554;28;1325;-50
2024/03/25 11:39:04;;;;;;;;;;;;;;;15.94;48.04;99476.25;5030133;28;1085;-50
2024/03/25 11:41:33;;;;;;;;;;;;;;;15.64;48.94;99478.88;5036688;28;1067;-52
2024/03/25 11:43:59;;;;;;;;;;;;;;;15.55;49.00;99486.66;5036259;28;1119;-55
2024/03/25 11:46:25;;;;;;;;;;;;;;;15.38;49.26;99487.34;5036788;28;1902;-52
2024/03/25 11:48:50;;;;;;;;;;;;;;;15.24;49.28;99494.69;5035185;28;1306;-52
2024/03/25 11:51:19;;;;;;;;;;;;;;;16.46;47.21;99497.19;5038596;28;1449;-55
2024/03/25 11:53:45;;;;;;;;;;;;;;;17.44;44.70;99489.88;5027916;28;2227;-50
2024/03/25 11:56:13;;;;;;;;;;;;;;;16.62;46.37;99490.44;5039700;28;1395;-51
2024/03/25 11:58:39;;;;;;;;;;;;;;;16.08;47.74;99472.38;5031027;28;1303;-51
2024/03/25 12:01:04;;;;;;;;;;;;;;;15.81;48.03;99474.72;5045816;28;1213;-51
2024/03/25 12:03:33;;;;;;;;;;;;;;;15.55;48.57;99484.03;5034845;28;984;-48
2024/03/25 12:05:59;;;;;;;;;;;;;;;15.47;48.70;99485.66;5035594;28;1085;-51
2024/03/25 12:08:26;;;;;;;;;;;;;;;15.25;49.41;99487.56;5036193;28;1993;-51
2024/03/25 12:13:36;;;;;;;;;;;;;;;17.44;44.51;99526.25;5040896;28;1351;-51
2024/03/25 12:16:02;;;;;;;;;;;;;;;17.20;44.83;99532.94;5042115;28;1114;-49
2024/03/25 12:18:28;;;;;;;;;;;;;;;16.42;46.54;99535.59;5035634;28;1348;-52
2024/03/25 12:20:53;;;;;;;;;;;;;;;16.03;47.36;99539.13;5049604;28;1384;-51
2024/03/25 12:23:19;;;;;;;;;;;;;;;15.79;47.99;99533.19;5050004;28;1190;-50
2024/03/25 12:25:50;;;;;;;;;;;;;;;15.66;48.29;99538.72;5025460;28;2696;-49
2024/03/25 12:28:16;;;;;;;;;;;;;;;15.48;48.44;99583.59;5038692;28;1910;-48
2024/03/25 12:30:57;;;;;;;;;;;;;;;15.34;48.49;99555.66;5018899;28;1102;-50
2024/03/25 12:33:23;;;;;;;;;;;;;;;16.32;46.56;99545.38;5029022;28;1049;-51
2024/03/25 12:35:49;;;;;;;;;;;;;;;17.40;44.11;99543.47;5034927;28;1202;-50
2024/03/25 12:38:41;;;;;;;;;;;;;;;16.61;45.61;99548.03;5050252;28;897;-52
2024/03/25 12:41:10;;;;;;;;;;;;;;;15.95;47.33;99555.66;5021634;28;1655;-48
2024/03/25 12:43:36;;;;;;;;;;;;;;;15.70;47.50;99557.03;5039836;28;1094;-50
2024/03/25 12:46:05;;;;;;;;;;;;;;;15.58;48.24;99567.72;5035490;28;1039;-50
2024/03/25 12:48:30;;;;;;;;;;;;;;;15.36;48.45;99558.19;5035956;28;1914;-50
2024/03/25 12:50:56;;;;;;;;;;;;;;;15.28;48.57;99550.91;5033922;28;1264;-49
2024/03/25 12:53:22;;;;;;;;;;;;;;;16.22;47.11;99566.63;5036363;28;1352;-50
2024/03/25 12:55:47;;;;;;;;;;;;;;;17.33;44.33;99553.88;5032149;28;2802;-49
2024/03/25 12:58:13;;;;;;;;;;;;;;;17.01;44.50;99556.75;5025875;28;1078;-50
2024/03/25 13:00:39;;;;;;;;;;;;;;;16.24;46.83;99554.06;5032355;28;1227;-51
2024/03/25 13:03:07;;;;;;;;;;;;;;;15.94;47.51;99554.00;5008349;28;1144;-49